createdAt,value
2017-10-19T00:00:17.564Z,16.10
2017-10-19T00:02:49.275Z,13.97
2017-10-19T00:05:16.792Z,18.30
2017-10-19T00:07:45.105Z,12.30
2017-10-19T00:10:12.856Z,14.00
2017-10-19T00:12:40.626Z,12.63
2017-10-19T00:15:08.128Z,18.93
2017-10-19T00:17:35.672Z,14.95
2017-10-19T00:20:15.582Z,18.93
2017-10-19T00:22:43.924Z,19.30
2017-10-19T00:25:11.431Z,21.73
2017-10-19T00:27:38.976Z,15.13
2017-10-19T00:30:06.561Z,23.70
2017-10-19T00:32:34.084Z,22.85
2017-10-19T00:35:04.960Z,19.80
2017-10-19T00:37:32.464Z,29.80
2017-10-19T00:40:00.787Z,19.67
2017-10-19T00:42:28.295Z,19.70
2017-10-19T00:44:56.608Z,18.65
2017-10-19T00:47:24.143Z,26.13
2017-10-19T00:49:53.352Z,22.33
2017-10-19T00:52:20.904Z,19.35
2017-10-19T00:54:49.175Z,23.20
2017-10-19T00:57:18.170Z,25.83
2017-10-19T00:59:45.744Z,21.80
2017-10-19T01:02:13.419Z,20.87
2017-10-19T01:04:40.929Z,22.67
2017-10-19T01:07:08.460Z,18.25
2017-10-19T01:09:37.223Z,21.58
2017-10-19T01:12:04.764Z,21.52
2017-10-19T01:14:32.310Z,18.17
2017-10-19T01:17:01.540Z,18.02
2017-10-19T01:19:29.075Z,21.33
2017-10-19T01:21:56.911Z,18.67
2017-10-19T01:24:25.094Z,18.43
2017-10-19T01:26:52.600Z,17.90
2017-10-19T01:29:21.524Z,21.35
2017-10-19T01:31:49.051Z,22.50
2017-10-19T01:34:24.510Z,23.90
2017-10-19T01:36:52.245Z,23.90
2017-10-19T01:39:19.789Z,27.07
2017-10-19T01:41:48.215Z,26.43
2017-10-19T01:44:15.933Z,16.25
2017-10-19T01:46:44.191Z,23.48
2017-10-19T01:49:12.613Z,18.80
2017-10-19T01:51:41.171Z,16.30
2017-10-19T01:54:08.832Z,15.00
2017-10-19T01:56:37.151Z,17.03
2017-10-19T01:59:05.407Z,20.10
2017-10-19T02:01:32.914Z,23.80
2017-10-19T02:04:04.066Z,23.20
2017-10-19T02:06:31.570Z,29.23
2017-10-19T02:08:59.083Z,16.97
2017-10-19T02:11:26.626Z,19.00
2017-10-19T02:13:54.864Z,18.80
2017-10-19T02:16:22.421Z,18.40
2017-10-19T02:18:50.110Z,25.57
2017-10-19T02:21:17.648Z,16.93
2017-10-19T02:23:45.162Z,21.00
2017-10-19T02:26:14.395Z,22.83
2017-10-19T02:28:41.903Z,18.73
2017-10-19T02:31:10.203Z,24.77
2017-10-19T02:33:39.400Z,18.90
2017-10-19T02:36:09.964Z,18.37
2017-10-19T02:38:37.655Z,16.03
2017-10-19T02:41:05.168Z,14.10
2017-10-19T02:43:34.411Z,15.87
2017-10-19T02:46:02.811Z,19.70
2017-10-19T02:48:30.372Z,19.43
2017-10-19T02:50:59.266Z,17.67
2017-10-19T02:53:27.100Z,27.53
2017-10-19T02:55:54.610Z,22.77
2017-10-19T02:58:23.099Z,29.60
2017-10-19T03:00:50.604Z,32.47
2017-10-19T03:03:18.146Z,30.90
2017-10-19T03:05:45.663Z,34.28
2017-10-19T03:08:14.301Z,39.58
2017-10-19T03:10:42.246Z,37.50
2017-10-19T03:13:09.747Z,27.93
2017-10-19T03:15:37.860Z,33.83
2017-10-19T03:18:06.173Z,29.07
2017-10-19T03:20:33.672Z,26.57
2017-10-19T03:23:02.391Z,23.27
2017-10-19T03:25:29.923Z,19.40
2017-10-19T03:27:58.203Z,23.90
2017-10-19T03:30:26.905Z,24.05
2017-10-19T03:32:54.448Z,26.30
2017-10-19T03:35:22.758Z,25.90
2017-10-19T03:37:51.071Z,27.25
2017-10-19T03:40:21.139Z,30.60
2017-10-19T03:42:48.636Z,37.30
2017-10-19T03:45:16.172Z,30.03
2017-10-19T03:47:43.674Z,26.93
2017-10-19T03:50:12.737Z,23.95
2017-10-19T03:52:40.432Z,36.70
2017-10-19T03:55:07.940Z,34.93
2017-10-19T03:57:35.509Z,42.30
2017-10-19T04:00:03.035Z,24.27
2017-10-19T04:02:30.568Z,22.90
2017-10-19T04:04:58.148Z,27.70
2017-10-19T04:07:26.464Z,34.47
2017-10-19T04:09:54.003Z,34.50
2017-10-19T04:12:21.510Z,28.63
2017-10-19T04:14:49.038Z,26.20
2017-10-19T04:17:16.575Z,18.33
2017-10-19T04:19:44.919Z,34.93
2017-10-19T04:22:16.283Z,32.88
2017-10-19T04:24:44.406Z,34.67
2017-10-19T04:27:11.947Z,29.77
2017-10-19T04:29:39.505Z,29.10
2017-10-19T04:32:08.420Z,29.83
2017-10-19T04:34:35.923Z,34.10
2017-10-19T04:37:04.254Z,37.63
2017-10-19T04:39:33.189Z,38.40
2017-10-19T04:42:02.403Z,26.13
2017-10-19T04:44:29.948Z,37.28
2017-10-19T04:46:57.492Z,37.53
2017-10-19T04:49:25.001Z,30.60
2017-10-19T04:51:52.601Z,33.70
2017-10-19T04:54:20.114Z,29.83
2017-10-19T04:56:48.804Z,25.00
2017-10-19T04:59:16.332Z,34.63
2017-10-19T05:01:44.616Z,29.10
2017-10-19T05:04:12.172Z,27.17
2017-10-19T05:06:41.372Z,24.35
2017-10-19T05:09:20.567Z,28.57
2017-10-19T05:11:48.089Z,24.08
2017-10-19T05:14:15.612Z,26.65
2017-10-19T05:16:43.288Z,32.20
2017-10-19T05:19:10.841Z,29.57
2017-10-19T05:21:38.392Z,30.00
2017-10-19T05:24:10.817Z,30.95
2017-10-19T05:26:42.558Z,27.10
2017-10-19T05:29:10.063Z,33.00
2017-10-19T05:31:37.558Z,28.83
2017-10-19T05:34:05.090Z,29.40
2017-10-19T05:36:32.652Z,33.30
2017-10-19T05:39:04.463Z,35.70
2017-10-19T05:41:32.061Z,47.72
2017-10-19T05:44:00.597Z,32.10
2017-10-19T05:46:28.135Z,40.30
2017-10-19T05:48:57.587Z,31.17
2017-10-19T05:51:25.096Z,43.87
2017-10-19T05:53:55.940Z,37.38
2017-10-19T05:56:24.227Z,35.28
2017-10-19T05:58:51.972Z,44.80
2017-10-19T06:01:19.511Z,34.13
2017-10-19T06:03:47.055Z,33.00
2017-10-19T06:06:14.696Z,39.33
2017-10-19T06:08:42.232Z,31.03
2017-10-19T06:11:09.739Z,31.57
2017-10-19T06:13:37.248Z,47.65
2017-10-19T06:16:05.628Z,39.56
2017-10-19T06:18:33.131Z,31.77
2017-10-19T06:21:00.642Z,31.30
2017-10-19T06:23:28.202Z,37.63
2017-10-19T06:25:59.343Z,35.00
2017-10-19T06:28:26.907Z,43.80
2017-10-19T06:30:54.912Z,41.40
2017-10-19T06:33:22.508Z,39.03
2017-10-19T06:35:50.787Z,34.23
2017-10-19T06:38:18.301Z,33.57
2017-10-19T06:40:50.277Z,34.80
2017-10-19T06:43:17.798Z,35.77
2017-10-19T06:45:45.553Z,39.80
2017-10-19T06:48:13.072Z,42.03
2017-10-19T06:50:40.633Z,41.93
2017-10-19T06:53:08.215Z,38.35
2017-10-19T06:55:35.764Z,41.83
2017-10-19T06:58:03.806Z,33.72
2017-10-19T07:00:31.382Z,41.60
2017-10-19T07:02:58.976Z,42.40
2017-10-19T07:05:26.490Z,42.13
2017-10-19T07:07:54.802Z,44.73
2017-10-19T07:10:23.370Z,40.92
2017-10-19T07:12:50.927Z,38.50
2017-10-19T07:15:19.338Z,47.60
2017-10-19T07:17:47.716Z,43.13
2017-10-19T07:20:15.464Z,46.60
2017-10-19T07:22:43.042Z,45.08
2017-10-19T07:25:14.900Z,41.57
2017-10-19T07:27:43.252Z,40.15
2017-10-19T07:30:10.865Z,43.23
2017-10-19T07:32:38.372Z,41.47
2017-10-19T07:35:07.658Z,44.83
2017-10-19T07:37:35.163Z,51.63
2017-10-19T07:40:02.679Z,47.10
2017-10-19T07:42:34.193Z,46.53
2017-10-19T07:45:01.828Z,42.97
2017-10-19T07:47:29.371Z,50.10
2017-10-19T07:49:56.910Z,47.90
2017-10-19T07:52:26.262Z,44.63
2017-10-19T07:54:54.845Z,49.57
2017-10-19T07:57:25.607Z,48.07
2017-10-19T07:59:53.119Z,51.35
2017-10-19T08:02:21.154Z,47.53
2017-10-19T08:04:48.712Z,56.57
2017-10-19T08:07:17.028Z,61.13
2017-10-19T08:09:44.657Z,48.10
2017-10-19T08:12:12.948Z,50.47
2017-10-19T08:14:40.526Z,62.85
2017-10-19T08:17:08.099Z,55.20
2017-10-19T08:19:35.663Z,59.03
2017-10-19T08:22:03.185Z,49.83
2017-10-19T08:24:30.713Z,47.23
2017-10-19T08:27:01.287Z,58.23
2017-10-19T08:29:28.853Z,53.17
2017-10-19T08:31:56.406Z,43.13
2017-10-19T08:34:25.199Z,49.20
2017-10-19T08:36:52.735Z,53.60
2017-10-19T08:39:21.342Z,46.57
2017-10-19T08:41:49.705Z,46.97
2017-10-19T08:44:17.224Z,58.17
2017-10-19T08:46:44.772Z,53.90
2017-10-19T08:49:12.275Z,51.90
2017-10-19T08:51:39.845Z,46.67
2017-10-19T08:54:09.188Z,42.15
2017-10-19T08:56:40.919Z,50.20
2017-10-19T08:59:10.503Z,46.60
2017-10-19T09:01:38.911Z,50.28
2017-10-19T09:04:06.457Z,44.07
2017-10-19T09:06:34.039Z,47.87
2017-10-19T09:09:01.574Z,41.53
2017-10-19T09:11:29.083Z,52.53
2017-10-19T09:13:56.640Z,46.95
2017-10-19T09:16:24.176Z,50.73
2017-10-19T09:18:51.692Z,48.33
2017-10-19T09:21:19.469Z,47.07
2017-10-19T09:23:48.139Z,51.35
2017-10-19T09:26:15.662Z,45.73
2017-10-19T09:28:43.226Z,47.63
2017-10-19T09:31:11.702Z,47.50
2017-10-19T09:33:39.221Z,46.60
2017-10-19T09:36:06.768Z,54.27
2017-10-19T09:38:34.351Z,55.10
2017-10-19T09:41:01.898Z,47.97
2017-10-19T09:43:29.460Z,58.00
2017-10-19T09:45:56.975Z,48.75
2017-10-19T09:48:25.159Z,46.77
2017-10-19T09:50:52.739Z,49.67
2017-10-19T09:53:20.244Z,58.35
2017-10-19T09:55:47.765Z,51.20
2017-10-19T09:58:18.493Z,50.33
2017-10-19T10:00:46.141Z,49.57
2017-10-19T10:03:13.699Z,45.70
2017-10-19T10:05:41.979Z,43.65
2017-10-19T10:08:09.727Z,43.22
2017-10-19T10:10:38.456Z,50.10
2017-10-19T10:13:05.980Z,45.87
2017-10-19T10:15:35.022Z,49.00
2017-10-19T10:18:02.563Z,46.65
2017-10-19T10:20:30.124Z,42.93
2017-10-19T10:22:57.651Z,44.03
2017-10-19T10:25:25.968Z,58.40
2017-10-19T10:27:53.551Z,52.07
2017-10-19T10:30:21.100Z,43.57
2017-10-19T10:32:48.680Z,49.00
2017-10-19T10:35:16.199Z,56.10
2017-10-19T10:37:43.735Z,50.73
2017-10-19T10:40:11.284Z,42.50
2017-10-19T10:42:38.852Z,42.53
2017-10-19T10:45:07.012Z,43.85
2017-10-19T10:47:34.576Z,36.10
2017-10-19T10:50:02.088Z,37.17
2017-10-19T10:52:29.643Z,36.88
2017-10-19T10:54:57.197Z,37.17
2017-10-19T10:57:24.703Z,42.70
2017-10-19T10:59:52.207Z,42.55
2017-10-19T11:02:20.266Z,44.22
2017-10-19T11:04:47.812Z,28.85
2017-10-19T11:07:15.335Z,46.70
2017-10-19T11:09:43.627Z,31.92
2017-10-19T11:12:11.217Z,33.03
2017-10-19T11:14:39.642Z,29.10
2017-10-19T11:17:07.176Z,33.80
2017-10-19T11:19:34.720Z,45.13
2017-10-19T11:22:02.279Z,38.63
2017-10-19T11:24:30.550Z,32.43
2017-10-19T11:26:58.476Z,36.50
2017-10-19T11:29:30.604Z,32.97
2017-10-19T11:31:59.058Z,34.67
2017-10-19T11:34:26.672Z,30.67
2017-10-19T11:36:54.208Z,27.57
2017-10-19T11:39:21.726Z,27.87
2017-10-19T11:41:49.306Z,27.50
2017-10-19T11:44:16.812Z,35.05
2017-10-19T11:46:48.509Z,31.85
2017-10-19T11:49:16.023Z,33.33
2017-10-19T11:51:43.596Z,28.83
2017-10-19T11:54:12.246Z,28.00
2017-10-19T11:56:40.111Z,26.10
2017-10-19T11:59:07.727Z,28.20
2017-10-19T12:01:39.101Z,24.73
2017-10-19T12:04:08.315Z,24.17
2017-10-19T12:06:35.858Z,24.07
2017-10-19T12:09:03.430Z,21.63
2017-10-19T12:11:30.943Z,23.73
2017-10-19T12:13:59.251Z,20.02
2017-10-19T12:16:30.957Z,21.77
2017-10-19T12:18:58.498Z,22.13
2017-10-19T12:21:26.084Z,20.53
2017-10-19T12:23:54.464Z,22.80
2017-10-19T12:26:22.892Z,23.92
2017-10-19T12:28:50.444Z,13.95
2017-10-19T12:31:18.016Z,15.87
2017-10-19T12:33:45.564Z,28.20
2017-10-19T12:36:13.072Z,20.47
2017-10-19T12:38:41.702Z,18.80
2017-10-19T12:41:09.252Z,20.10
2017-10-19T12:43:36.796Z,18.13
2017-10-19T12:46:06.023Z,25.40
2017-10-19T12:48:34.384Z,16.13
2017-10-19T12:51:01.906Z,26.03
2017-10-19T12:53:29.443Z,32.03
2017-10-19T12:55:56.995Z,18.15
2017-10-19T12:58:25.431Z,27.20
2017-10-19T13:00:52.940Z,18.08
2017-10-19T13:03:20.478Z,15.50
2017-10-19T13:05:48.057Z,21.70
2017-10-19T13:08:15.573Z,29.17
2017-10-19T13:10:43.376Z,20.98
2017-10-19T13:13:10.972Z,20.67
2017-10-19T13:15:38.641Z,17.80
2017-10-19T13:18:10.068Z,22.77
2017-10-19T13:20:37.624Z,17.23
2017-10-19T13:23:05.140Z,21.65
2017-10-19T13:25:34.263Z,19.62
2017-10-19T13:28:01.817Z,17.90
2017-10-19T13:30:29.323Z,22.33
2017-10-19T13:32:56.840Z,29.43
2017-10-19T13:35:24.378Z,19.93
2017-10-19T13:37:52.528Z,16.53
2017-10-19T13:40:20.828Z,23.30
2017-10-19T13:42:48.595Z,16.30
2017-10-19T13:45:16.125Z,19.80
2017-10-19T13:47:44.398Z,16.80
2017-10-19T13:50:11.972Z,20.67
2017-10-19T13:52:40.268Z,19.40
2017-10-19T13:55:07.799Z,19.12
2017-10-19T13:57:36.292Z,17.63
2017-10-19T14:00:03.819Z,17.27
2017-10-19T14:02:35.671Z,16.53
2017-10-19T14:05:03.201Z,17.00
2017-10-19T14:07:31.441Z,18.87
2017-10-19T14:09:59.019Z,22.70
2017-10-19T14:12:26.542Z,17.70
2017-10-19T14:14:54.103Z,21.50
2017-10-19T14:17:25.225Z,14.53
2017-10-19T14:19:52.790Z,16.00
2017-10-19T14:22:20.860Z,16.60
2017-10-19T14:24:49.188Z,18.95
2017-10-19T14:27:16.702Z,17.27
2017-10-19T14:29:45.947Z,19.77
2017-10-19T14:32:13.468Z,22.60
2017-10-19T14:34:41.805Z,21.87
2017-10-19T14:37:10.244Z,16.47
2017-10-19T14:39:38.639Z,20.77
2017-10-19T14:42:06.197Z,20.93
2017-10-19T14:44:33.729Z,18.20
2017-10-19T14:47:01.330Z,14.90
2017-10-19T14:49:29.777Z,13.50
2017-10-19T14:51:57.383Z,14.60
2017-10-19T14:54:24.891Z,18.03
2017-10-19T14:56:54.090Z,23.07
2017-10-19T14:59:21.679Z,15.70
2017-10-19T15:01:49.216Z,20.27
2017-10-19T15:04:16.724Z,19.53
2017-10-19T15:06:44.296Z,16.73
2017-10-19T15:09:11.808Z,13.77
2017-10-19T15:11:39.380Z,13.77
2017-10-19T15:14:07.862Z,15.40
2017-10-19T15:16:35.382Z,21.50
2017-10-19T15:19:02.955Z,22.67
2017-10-19T15:21:30.468Z,15.43
2017-10-19T15:23:58.012Z,16.30
2017-10-19T15:26:25.555Z,20.37
2017-10-19T15:28:53.128Z,16.77
2017-10-19T15:31:21.968Z,20.55
2017-10-19T15:33:49.484Z,18.00
2017-10-19T15:36:17.990Z,17.37
2017-10-19T15:38:46.169Z,14.63
2017-10-19T15:41:14.450Z,16.30
2017-10-19T15:43:41.993Z,16.47
2017-10-19T15:46:09.527Z,13.73
2017-10-19T15:48:41.151Z,18.67
2017-10-19T15:51:14.531Z,20.50
2017-10-19T15:53:42.470Z,24.43
2017-10-19T15:56:10.511Z,20.73
2017-10-19T15:58:38.084Z,17.07
2017-10-19T16:01:06.642Z,19.45
2017-10-19T16:03:34.150Z,15.48
2017-10-19T16:06:01.956Z,20.53
2017-10-19T16:08:29.480Z,19.16
2017-10-19T16:10:57.791Z,21.43
2017-10-19T16:13:25.316Z,16.27
2017-10-19T16:15:53.730Z,17.60
2017-10-19T16:18:22.085Z,19.55
2017-10-19T16:20:50.503Z,18.42
2017-10-19T16:23:18.029Z,13.90
2017-10-19T16:25:45.552Z,16.80
2017-10-19T16:28:13.687Z,18.00
2017-10-19T16:30:41.190Z,18.10
2017-10-19T16:33:09.513Z,20.17
2017-10-19T16:35:41.624Z,21.20
2017-10-19T16:38:09.162Z,18.95
2017-10-19T16:40:36.723Z,21.63
2017-10-19T16:43:04.302Z,21.63
2017-10-19T16:45:31.816Z,21.17
2017-10-19T16:47:59.376Z,18.50
2017-10-19T16:50:31.849Z,23.63
2017-10-19T16:52:59.359Z,19.17
2017-10-19T16:55:26.899Z,25.85
2017-10-19T16:57:55.075Z,20.70
2017-10-19T17:00:24.148Z,25.85
2017-10-19T17:02:51.664Z,21.10
2017-10-19T17:05:23.377Z,23.30
2017-10-19T17:07:50.911Z,23.45
2017-10-19T17:10:18.430Z,25.17
2017-10-19T17:12:46.271Z,21.40
2017-10-19T17:15:13.818Z,18.17
2017-10-19T17:17:41.408Z,29.13
2017-10-19T17:20:09.120Z,19.00
2017-10-19T17:22:37.160Z,21.77
2017-10-19T17:25:05.465Z,19.98
2017-10-19T17:27:33.000Z,17.70
2017-10-19T17:30:00.534Z,21.17
2017-10-19T17:32:28.090Z,23.40
2017-10-19T17:34:57.316Z,19.87
2017-10-19T17:37:29.867Z,24.10
2017-10-19T17:39:57.396Z,25.83
2017-10-19T17:42:24.980Z,29.10
2017-10-19T17:44:52.518Z,24.27
2017-10-19T17:47:20.090Z,26.93
2017-10-19T17:49:47.665Z,18.83
2017-10-19T17:52:15.899Z,24.05
2017-10-19T17:54:43.443Z,25.97
2017-10-19T17:57:10.991Z,20.67
2017-10-19T17:59:38.551Z,25.40
2017-10-19T18:02:07.252Z,20.10
2017-10-19T18:04:36.052Z,20.37
2017-10-19T18:07:06.994Z,25.55
2017-10-19T18:09:34.539Z,27.90
2017-10-19T18:12:02.074Z,23.97
2017-10-19T18:14:30.320Z,28.08
2017-10-19T18:16:57.868Z,27.70
2017-10-19T18:19:25.442Z,27.17
2017-10-19T18:22:00.488Z,26.57
2017-10-19T18:24:28.013Z,43.00
2017-10-19T18:26:55.569Z,33.43
2017-10-19T18:29:23.101Z,28.90
2017-10-19T18:31:50.859Z,29.75
2017-10-19T18:34:19.427Z,25.00
2017-10-19T18:36:47.692Z,30.17
2017-10-19T18:39:19.218Z,38.17
2017-10-19T18:41:46.734Z,29.77
2017-10-19T18:44:15.123Z,30.30
2017-10-19T18:46:42.654Z,29.02
2017-10-19T18:49:10.924Z,31.17
2017-10-19T18:51:42.566Z,32.25
2017-10-19T18:54:11.451Z,36.40
2017-10-19T18:56:38.980Z,36.67
2017-10-19T18:59:06.488Z,36.78
2017-10-19T19:01:34.496Z,33.87
2017-10-19T19:04:02.007Z,25.03
2017-10-19T19:06:29.560Z,35.37
2017-10-19T19:09:01.079Z,36.87
2017-10-19T19:11:29.547Z,42.50
2017-10-19T19:13:57.445Z,29.63
2017-10-19T19:16:25.005Z,34.83
2017-10-19T19:18:52.671Z,40.72
2017-10-19T19:21:20.179Z,41.28
2017-10-19T19:23:51.291Z,33.38
2017-10-19T19:26:19.672Z,35.33
2017-10-19T19:28:47.221Z,35.35
2017-10-19T19:31:15.613Z,37.20
2017-10-19T19:33:43.781Z,34.83
2017-10-19T19:36:11.311Z,32.90
2017-10-19T19:38:43.822Z,24.45
2017-10-19T19:41:11.380Z,31.50
2017-10-19T19:43:40.669Z,25.73
2017-10-19T19:46:09.683Z,36.28
2017-10-19T19:48:37.239Z,29.80
2017-10-19T19:51:04.794Z,32.20
2017-10-19T19:53:41.840Z,32.17
2017-10-19T19:56:09.832Z,26.67
2017-10-19T19:58:38.176Z,27.90
2017-10-19T20:01:05.726Z,24.83
2017-10-19T20:03:34.167Z,28.58
2017-10-19T20:06:01.687Z,33.92
2017-10-19T20:08:32.884Z,34.17
2017-10-19T20:11:00.401Z,32.90
2017-10-19T20:13:27.956Z,27.73
2017-10-19T20:15:55.479Z,32.67
2017-10-19T20:18:24.336Z,24.63
2017-10-19T20:20:51.919Z,25.33
2017-10-19T20:23:19.452Z,30.47
2017-10-19T20:25:47.026Z,23.03
2017-10-19T20:28:14.574Z,23.83
2017-10-19T20:30:43.037Z,28.42
2017-10-19T20:33:10.583Z,29.53
2017-10-19T20:35:38.101Z,25.77
2017-10-19T20:38:09.171Z,25.97
2017-10-19T20:40:36.723Z,21.17
2017-10-19T20:43:04.226Z,23.27
2017-10-19T20:45:33.931Z,28.48
2017-10-19T20:48:01.472Z,20.62
2017-10-19T20:50:29.772Z,25.77
2017-10-19T20:52:57.476Z,25.30
2017-10-19T20:55:26.042Z,28.93
2017-10-19T20:57:53.638Z,24.33
2017-10-19T21:00:21.844Z,25.60
2017-10-19T21:02:50.158Z,23.65
2017-10-19T21:05:17.699Z,25.83
2017-10-19T21:07:47.711Z,26.33
2017-10-19T21:10:15.264Z,21.83
2017-10-19T21:12:42.792Z,25.88
2017-10-19T21:15:10.356Z,28.08
2017-10-19T21:17:37.871Z,26.17
2017-10-19T21:20:07.179Z,24.00
2017-10-19T21:22:35.651Z,24.27
2017-10-19T21:25:03.164Z,20.17
2017-10-19T21:27:31.510Z,22.50
2017-10-19T21:29:59.055Z,24.30
2017-10-19T21:32:26.568Z,25.80
2017-10-19T21:34:55.860Z,24.10
2017-10-19T21:37:23.456Z,27.17
2017-10-19T21:39:54.898Z,20.37
2017-10-19T21:42:22.403Z,24.57
2017-10-19T21:44:50.208Z,21.05
2017-10-19T21:47:17.718Z,24.50
2017-10-19T21:49:45.241Z,18.93
2017-10-19T21:52:13.102Z,28.47
2017-10-19T21:54:40.606Z,27.27
2017-10-19T21:57:11.379Z,24.02
2017-10-19T21:59:40.156Z,25.00
2017-10-19T22:02:08.540Z,29.55
2017-10-19T22:04:36.940Z,30.92
2017-10-19T22:07:04.488Z,32.43
2017-10-19T22:09:32.043Z,28.00
2017-10-19T22:11:59.547Z,30.42
2017-10-19T22:14:27.068Z,30.40
2017-10-19T22:16:54.648Z,33.15
2017-10-19T22:19:22.215Z,29.12
2017-10-19T22:21:49.772Z,27.52
2017-10-19T22:24:17.942Z,28.65
2017-10-19T22:26:48.575Z,25.37
2017-10-19T22:29:16.078Z,26.27
2017-10-19T22:31:43.616Z,27.73
2017-10-19T22:34:11.159Z,25.53
2017-10-19T22:36:38.718Z,26.60
2017-10-19T22:39:06.249Z,28.15
2017-10-19T22:41:33.812Z,27.10
2017-10-19T22:44:01.916Z,22.42
2017-10-19T22:46:29.443Z,27.73
2017-10-19T22:48:58.132Z,30.88
2017-10-19T22:51:26.432Z,28.80
2017-10-19T22:53:54.055Z,26.80
2017-10-19T22:56:22.323Z,27.17
2017-10-19T22:58:54.488Z,25.77
2017-10-19T23:01:22.787Z,20.20
2017-10-19T23:03:50.323Z,22.85
2017-10-19T23:06:18.597Z,20.00
2017-10-19T23:08:46.147Z,18.87
2017-10-19T23:11:13.823Z,21.13
2017-10-19T23:13:45.844Z,20.30
2017-10-19T23:16:13.352Z,25.30
2017-10-19T23:18:41.717Z,32.23
2017-10-19T23:21:09.651Z,32.00
2017-10-19T23:23:37.258Z,24.20
2017-10-19T23:26:09.395Z,23.80
2017-10-19T23:28:36.905Z,18.70
2017-10-19T23:31:04.652Z,17.60
2017-10-19T23:33:32.163Z,20.95
2017-10-19T23:36:00.540Z,22.80
2017-10-19T23:38:28.043Z,22.90
2017-10-19T23:40:55.549Z,20.80
2017-10-19T23:43:23.105Z,17.60
2017-10-19T23:45:50.664Z,16.35
2017-10-19T23:48:18.223Z,23.77
2017-10-19T23:50:45.750Z,22.20
2017-10-19T23:53:14.052Z,21.54
2017-10-19T23:55:41.575Z,21.37
2017-10-19T23:58:13.491Z,24.67
